createdAt,value
2022-08-04T00:01:37.078Z,100385.59
2022-08-04T00:04:05.832Z,100381.19
2022-08-04T00:06:35.006Z,100384.75
2022-08-04T00:09:03.330Z,100377.78
2022-08-04T00:11:30.548Z,100375.19
2022-08-04T00:14:03.532Z,100374.28
2022-08-04T00:16:37.855Z,100374.31
2022-08-04T00:19:07.448Z,100372.69
2022-08-04T00:21:35.400Z,100368.31
2022-08-04T00:24:12.394Z,100371.91
2022-08-04T00:26:39.742Z,100381.78
2022-08-04T00:29:09.151Z,100376.50
2022-08-04T00:31:56.443Z,100380.88
2022-08-04T00:34:27.615Z,100379.13
2022-08-04T00:36:54.560Z,100372.06
2022-08-04T00:39:23.986Z,100372.94
2022-08-04T00:41:56.326Z,100380.94
2022-08-04T00:44:29.455Z,100381.81
2022-08-04T00:47:17.175Z,100390.66
2022-08-04T00:50:21.605Z,100389.81
2022-08-04T00:52:48.181Z,100387.34
2022-08-04T00:55:22.490Z,100391.75
2022-08-04T00:58:01.187Z,100389.97
2022-08-04T01:00:40.770Z,100391.72
2022-08-04T01:03:27.668Z,100394.34
2022-08-04T01:06:10.023Z,100393.50
2022-08-04T01:08:45.822Z,100388.25
2022-08-04T01:11:31.146Z,100391.75
2022-08-04T01:14:18.667Z,100390.91
2022-08-04T01:16:48.900Z,100394.53
2022-08-04T01:19:18.583Z,100391.06
2022-08-04T01:21:51.267Z,100390.19
2022-08-04T01:24:33.564Z,100392.03
2022-08-04T01:27:04.338Z,100392.91
2022-08-04T01:29:46.563Z,100397.31
2022-08-04T01:32:21.029Z,100392.84
2022-08-04T01:35:04.342Z,100393.78
2022-08-04T01:37:39.411Z,100391.16
2022-08-04T01:40:06.848Z,100398.25
2022-08-04T01:42:33.881Z,100391.16
2022-08-04T01:45:03.834Z,100395.56
2022-08-04T01:47:31.006Z,100392.03
2022-08-04T01:50:07.883Z,100392.09
2022-08-04T01:52:42.316Z,100382.47
2022-08-04T01:55:13.394Z,100391.53
2022-08-04T01:57:47.062Z,100387.16
2022-08-04T02:00:15.221Z,100389.81
2022-08-04T02:02:44.451Z,100391.66
2022-08-04T02:05:14.061Z,100390.78
2022-08-04T02:07:43.545Z,100385.56
2022-08-04T02:10:15.823Z,100384.69
2022-08-04T02:13:00.863Z,100384.69
2022-08-04T02:15:29.179Z,100385.59
2022-08-04T02:18:05.711Z,100378.56
2022-08-04T02:20:36.578Z,100382.97
2022-08-04T02:23:09.566Z,100386.47
2022-08-04T02:25:51.536Z,100382.97
2022-08-04T02:28:36.546Z,100380.31
2022-08-04T02:31:23.395Z,100379.44
2022-08-04T02:33:56.756Z,100378.69
2022-08-04T02:36:24.485Z,100373.38
2022-08-04T02:39:00.966Z,100380.47
2022-08-04T02:41:29.159Z,100376.91
2022-08-04T02:43:56.692Z,100381.31
2022-08-04T02:46:23.501Z,100383.91
2022-08-04T02:48:51.003Z,100382.19
2022-08-04T02:51:20.011Z,100376.03
2022-08-04T02:53:48.961Z,100375.22
2022-08-04T02:56:19.399Z,100375.22
2022-08-04T02:58:53.393Z,100374.31
2022-08-04T03:01:21.632Z,100370.78
2022-08-04T03:03:48.373Z,100373.44
2022-08-04T03:06:24.969Z,100375.31
2022-08-04T03:08:53.893Z,100377.09
2022-08-04T03:11:39.262Z,100378.84
2022-08-04T03:14:09.672Z,100372.66
2022-08-04T03:16:40.096Z,100379.72
2022-08-04T03:19:09.151Z,100376.22
2022-08-04T03:21:54.366Z,100380.66
2022-08-04T03:24:43.350Z,100378.06
2022-08-04T03:27:22.889Z,100377.16
2022-08-04T03:29:55.281Z,100379.78
2022-08-04T03:32:27.917Z,100385.03
2022-08-04T03:35:13.608Z,100380.66
2022-08-04T03:38:02.635Z,100385.94
2022-08-04T03:40:47.597Z,100379.84
2022-08-04T03:43:57.721Z,100387.81
2022-08-04T03:46:07.184Z,100392.28
2022-08-04T03:48:54.093Z,100386.09
2022-08-04T03:51:43.660Z,100387.06
2022-08-04T03:54:10.215Z,100391.47
2022-08-04T03:56:43.074Z,100386.13
2022-08-04T03:59:20.850Z,100389.63
2022-08-04T04:02:02.831Z,100395.75
2022-08-04T04:04:33.188Z,100384.31
2022-08-04T04:07:06.722Z,100390.41
2022-08-04T04:09:57.177Z,100392.16
2022-08-04T04:12:27.582Z,100389.47
2022-08-04T04:15:09.223Z,100391.22
2022-08-04T04:17:43.395Z,100392.06
2022-08-04T04:20:10.978Z,100388.50
2022-08-04T04:22:56.063Z,100396.38
2022-08-04T04:25:42.436Z,100398.94
2022-08-04T04:28:45.460Z,100392.69
2022-08-04T04:31:11.573Z,100402.28
2022-08-04T04:33:44.463Z,100398.69
2022-08-04T04:36:12.164Z,100401.25
2022-08-04T04:39:00.945Z,100403.81
2022-08-04T04:41:32.465Z,100408.19
2022-08-04T04:44:15.794Z,100414.34
2022-08-04T04:47:03.287Z,100407.16
2022-08-04T04:49:49.881Z,100411.50
2022-08-04T04:52:30.665Z,100415.75
2022-08-04T04:55:18.622Z,100413.06
2022-08-04T04:57:53.524Z,100416.56
2022-08-04T05:00:22.195Z,100414.78
2022-08-04T05:03:29.596Z,100413.88
2022-08-04T05:05:59.408Z,100413.81
2022-08-04T05:08:43.127Z,100417.31
2022-08-04T05:11:24.883Z,100415.53
2022-08-04T05:14:38.328Z,100415.53
2022-08-04T05:16:44.827Z,100418.19
2022-08-04T05:19:14.468Z,100427.91
2022-08-04T05:21:50.963Z,100428.84
2022-08-04T05:24:21.228Z,100429.75
2022-08-04T05:26:50.086Z,100427.09
2022-08-04T05:29:30.938Z,100435.97
2022-08-04T05:31:59.967Z,100436.78
2022-08-04T05:34:28.434Z,100438.53
2022-08-04T05:36:58.783Z,100442.84
2022-08-04T05:39:33.836Z,100439.25
2022-08-04T05:42:04.650Z,100436.56
2022-08-04T05:44:32.050Z,100441.81
2022-08-04T05:47:01.293Z,100445.28
2022-08-04T05:49:30.704Z,100445.16
2022-08-04T05:52:01.269Z,100446.88
2022-08-04T05:54:28.404Z,100445.00
2022-08-04T05:56:57.861Z,100452.00
2022-08-04T05:59:25.851Z,100450.16
2022-08-04T06:01:57.221Z,100441.19
2022-08-04T06:04:35.412Z,100445.47
2022-08-04T06:07:02.438Z,100451.50
2022-08-04T06:09:29.016Z,100446.09
2022-08-04T06:12:03.476Z,100447.69
2022-08-04T06:14:44.341Z,100453.66
2022-08-04T06:18:32.624Z,100449.09
2022-08-04T06:20:20.275Z,100452.41
2022-08-04T06:22:49.880Z,100447.81
2022-08-04T06:25:20.951Z,100448.50
2022-08-04T06:27:48.246Z,100451.00
2022-08-04T06:30:19.272Z,100458.84
2022-08-04T06:32:49.798Z,100447.22
2022-08-04T06:35:19.275Z,100450.53
2022-08-04T06:37:46.633Z,100453.09
2022-08-04T06:40:31.965Z,100449.38
2022-08-04T06:43:06.790Z,100444.78
2022-08-04T06:45:34.818Z,100439.31
2022-08-04T06:48:01.925Z,100440.03
2022-08-04T06:51:26.384Z,100438.13
2022-08-04T06:53:15.494Z,100441.41
2022-08-04T06:55:49.029Z,100434.16
2022-08-04T06:58:16.061Z,100437.56
2022-08-04T07:00:46.026Z,100443.59
2022-08-04T07:03:16.373Z,100442.44
2022-08-04T07:05:43.443Z,100443.94
2022-08-04T07:08:12.509Z,100434.91
2022-08-04T07:10:41.638Z,100439.13
2022-08-04T07:13:11.156Z,100439.88
2022-08-04T07:15:37.977Z,100436.19
2022-08-04T07:18:05.226Z,100443.97
2022-08-04T07:20:36.793Z,100443.75
2022-08-04T07:23:07.114Z,100433.03
2022-08-04T07:25:58.744Z,100442.84
2022-08-04T07:28:22.288Z,100438.25
2022-08-04T07:30:49.554Z,100435.47
2022-08-04T07:33:19.157Z,100433.41
2022-08-04T07:36:10.543Z,100435.84
2022-08-04T07:38:33.155Z,100429.38
2022-08-04T07:41:00.019Z,100421.22
2022-08-04T07:43:27.751Z,100423.66
2022-08-04T07:45:54.369Z,100426.88
2022-08-04T07:48:24.529Z,100423.75
2022-08-04T07:50:54.404Z,100423.38
2022-08-04T07:53:52.959Z,100420.41
2022-08-04T07:56:08.138Z,100417.47
2022-08-04T07:58:35.008Z,100413.75
2022-08-04T08:01:01.834Z,100410.81
2022-08-04T08:03:32.037Z,100406.97
2022-08-04T08:06:17.704Z,100412.81
2022-08-04T08:08:55.072Z,100408.75
2022-08-04T08:11:21.823Z,100412.72
2022-08-04T08:13:51.395Z,100415.03
2022-08-04T08:16:21.004Z,100414.66
2022-08-04T08:18:50.328Z,100417.06
2022-08-04T08:21:21.773Z,100413.22
2022-08-04T08:23:51.836Z,100410.50
2022-08-04T08:26:20.747Z,100414.72
2022-08-04T08:28:47.386Z,100419.88
2022-08-04T08:31:14.013Z,100413.63
2022-08-04T08:33:41.287Z,100407.97
2022-08-04T08:36:09.908Z,100421.84
2022-08-04T08:38:39.250Z,100416.16
2022-08-04T08:41:08.549Z,100416.94
2022-08-04T08:44:03.794Z,100413.91
2022-08-04T08:46:49.346Z,100415.28
2022-08-04T08:50:00.988Z,100419.38
2022-08-04T08:53:00.643Z,100415.28
2022-08-04T08:55:43.417Z,100412.06
2022-08-04T08:58:47.767Z,100407.16
2022-08-04T09:01:14.342Z,100406.56
2022-08-04T09:03:49.823Z,100404.34
2022-08-04T09:06:32.381Z,100405.72
2022-08-04T09:09:07.712Z,100407.06
2022-08-04T09:11:42.464Z,100404.97
2022-08-04T09:14:11.347Z,100411.75
2022-08-04T09:16:54.606Z,100400.69
2022-08-04T09:19:38.945Z,100407.59
2022-08-04T09:22:12.466Z,100407.94
2022-08-04T09:24:44.890Z,100403.03
2022-08-04T09:27:21.598Z,100407.13
2022-08-04T09:30:03.168Z,100411.50
2022-08-04T09:32:39.144Z,100395.13
2022-08-04T09:35:15.812Z,100405.34
2022-08-04T09:37:46.555Z,100396.97
2022-08-04T09:40:31.729Z,100390.97
2022-08-04T09:43:09.735Z,100398.75
2022-08-04T09:45:44.214Z,100396.44
2022-08-04T09:48:17.875Z,100392.22
2022-08-04T09:50:50.007Z,100385.34
2022-08-04T09:53:35.741Z,100386.59
2022-08-04T09:56:03.502Z,100387.53
2022-08-04T09:58:37.284Z,100386.88
2022-08-04T10:01:08.557Z,100380.81
2022-08-04T10:03:35.712Z,100372.13
2022-08-04T10:06:08.045Z,100374.97
2022-08-04T10:08:40.651Z,100373.41
2022-08-04T10:11:15.133Z,100376.47
2022-08-04T10:13:52.869Z,100372.47
2022-08-04T10:16:38.642Z,100369.94
2022-08-04T10:19:34.678Z,100366.72
2022-08-04T10:22:28.077Z,100367.78
2022-08-04T10:24:47.694Z,100365.16
2022-08-04T10:27:21.830Z,100358.53
2022-08-04T10:29:48.746Z,100363.78
2022-08-04T10:32:43.273Z,100360.84
2022-08-04T10:35:16.469Z,100358.16
2022-08-04T10:38:00.194Z,100358.72
2022-08-04T10:40:37.561Z,100354.56
2022-08-04T10:43:22.777Z,100345.81
2022-08-04T10:45:58.051Z,100342.69
2022-08-04T10:48:36.892Z,100343.03
2022-08-04T10:51:11.753Z,100344.88
2022-08-04T10:53:39.179Z,100338.03
2022-08-04T10:56:20.108Z,100340.03
2022-08-04T10:58:48.926Z,100334.84
2022-08-04T11:02:03.041Z,100333.72
2022-08-04T11:04:12.753Z,100326.78
2022-08-04T11:06:39.404Z,100326.03
2022-08-04T11:09:05.947Z,100335.28
2022-08-04T11:12:01.254Z,100329.97
2022-08-04T11:14:34.068Z,100331.47
2022-08-04T11:17:07.729Z,100333.94
2022-08-04T11:19:45.132Z,100329.97
2022-08-04T11:22:23.240Z,100327.47
2022-08-04T11:24:52.274Z,100322.75
2022-08-04T11:27:26.135Z,100326.63
2022-08-04T11:29:55.818Z,100317.41
2022-08-04T11:32:26.124Z,100324.03
2022-08-04T11:34:53.478Z,100323.59
2022-08-04T11:37:27.126Z,100312.78
2022-08-04T11:39:54.041Z,100315.19
2022-08-04T11:42:24.871Z,100313.63
2022-08-04T11:45:07.953Z,100307.00
2022-08-04T11:47:40.563Z,100312.25
2022-08-04T11:50:17.217Z,100305.59
2022-08-04T11:52:46.282Z,100304.06
2022-08-04T11:55:17.002Z,100292.19
2022-08-04T11:57:43.658Z,100289.31
2022-08-04T12:00:12.645Z,100287.97
2022-08-04T12:02:49.677Z,100284.78
2022-08-04T12:05:36.016Z,100284.28
2022-08-04T12:08:10.104Z,100278.50
2022-08-04T12:10:47.833Z,100271.09
2022-08-04T12:13:14.600Z,100269.50
2022-08-04T12:15:48.500Z,100279.50
2022-08-04T12:18:30.410Z,100267.78
2022-08-04T12:20:59.820Z,100270.94
2022-08-04T12:23:30.086Z,100263.88
2022-08-04T12:26:01.010Z,100261.28
2022-08-04T12:29:08.592Z,100257.81
2022-08-04T12:31:28.051Z,100268.44
2022-08-04T12:34:04.719Z,100255.81
2022-08-04T12:36:55.566Z,100250.63
2022-08-04T12:39:22.576Z,100251.53
2022-08-04T12:41:55.681Z,100255.78
2022-08-04T12:44:36.537Z,100261.63
2022-08-04T12:47:27.236Z,100248.16
2022-08-04T12:50:00.897Z,100253.41
2022-08-04T12:52:51.697Z,100249.72
2022-08-04T12:55:18.031Z,100242.22
2022-08-04T12:57:44.640Z,100248.22
2022-08-04T13:00:16.063Z,100249.03
2022-08-04T13:02:47.061Z,100252.97
2022-08-04T13:05:16.797Z,100237.50
2022-08-04T13:07:50.810Z,100243.72
2022-08-04T13:10:18.475Z,100240.06
2022-08-04T13:12:51.639Z,100237.25
2022-08-04T13:15:21.246Z,100236.25
2022-08-04T13:18:11.826Z,100230.22
2022-08-04T13:20:45.079Z,100231.69
2022-08-04T13:23:20.178Z,100230.41
2022-08-04T13:26:42.534Z,100227.59
2022-08-04T13:28:43.588Z,100232.09
2022-08-04T13:31:12.707Z,100222.88
2022-08-04T13:33:42.721Z,100215.16
2022-08-04T13:36:09.549Z,100225.00
2022-08-04T13:38:48.924Z,100218.84
2022-08-04T13:41:15.468Z,100213.47
2022-08-04T13:44:15.992Z,100211.19
2022-08-04T13:46:32.910Z,100205.44
2022-08-04T13:51:57.889Z,100204.34
2022-08-04T13:54:35.487Z,100207.91
2022-08-04T13:57:15.289Z,100204.16
2022-08-04T13:59:41.853Z,100200.44
2022-08-04T14:02:11.315Z,100202.38
2022-08-04T14:04:45.203Z,100193.16
2022-08-04T14:07:18.174Z,100194.38
2022-08-04T14:10:03.652Z,100192.25
2022-08-04T14:12:38.065Z,100182.91
2022-08-04T14:15:54.661Z,100179.44
2022-08-04T14:18:20.868Z,100180.16
2022-08-04T14:20:59.801Z,100171.25
2022-08-04T14:23:31.698Z,100168.81
2022-08-04T14:25:58.511Z,100176.97
2022-08-04T14:29:08.752Z,100170.97
2022-08-04T14:31:21.661Z,100176.78
2022-08-04T14:34:04.509Z,100173.28
2022-08-04T14:37:13.947Z,100173.00
2022-08-04T14:39:41.726Z,100173.00
2022-08-04T14:42:46.104Z,100179.03
2022-08-04T14:45:27.497Z,100175.50
2022-08-04T14:47:56.999Z,100168.03
2022-08-04T14:50:37.528Z,100172.88
2022-08-04T14:53:05.020Z,100166.19
2022-08-04T14:55:36.668Z,100176.16
2022-08-04T14:58:36.059Z,100177.56
2022-08-04T15:00:53.298Z,100166.53
2022-08-04T15:03:20.468Z,100170.34
2022-08-04T15:05:55.179Z,100167.13
2022-08-04T15:08:32.927Z,100170.34
2022-08-04T15:11:02.504Z,100166.28
2022-08-04T15:13:32.478Z,100166.28
2022-08-04T15:16:07.100Z,100164.28
2022-08-04T15:18:39.046Z,100158.88
2022-08-04T15:21:06.260Z,100160.56
2022-08-04T15:23:39.695Z,100164.69
2022-08-04T15:26:10.115Z,100154.25
2022-08-04T15:28:37.655Z,100150.59
2022-08-04T15:31:04.643Z,100136.72
2022-08-04T15:33:40.026Z,100151.78
2022-08-04T15:36:11.674Z,100148.75
2022-08-04T15:39:03.708Z,100141.06
2022-08-04T15:41:46.484Z,100147.69
2022-08-04T15:44:58.583Z,100141.00
2022-08-04T15:47:26.241Z,100136.22
2022-08-04T15:50:03.338Z,100139.00
2022-08-04T15:52:32.030Z,100132.94
2022-08-04T15:55:18.126Z,100137.13
2022-08-04T15:57:59.229Z,100125.56
2022-08-04T16:00:28.520Z,100122.34
2022-08-04T16:02:57.666Z,100124.13
2022-08-04T16:05:24.235Z,100122.94
2022-08-04T16:08:04.597Z,100118.97
2022-08-04T16:11:00.925Z,100109.94
2022-08-04T16:13:30.069Z,100121.63
2022-08-04T16:16:03.539Z,100110.44
2022-08-04T16:18:30.447Z,100114.50
2022-08-04T16:20:57.995Z,100107.28
2022-08-04T16:23:52.527Z,100108.25
2022-08-04T16:26:45.244Z,100110.50
2022-08-04T16:29:29.007Z,100113.09
2022-08-04T16:32:05.353Z,100100.59
2022-08-04T16:34:48.289Z,100111.94
2022-08-04T16:37:18.971Z,100100.59
2022-08-04T16:39:50.852Z,100101.44
2022-08-04T16:42:30.536Z,100098.69
2022-08-04T16:45:02.348Z,100102.97
2022-08-04T16:47:47.204Z,100097.19
2022-08-04T16:50:26.006Z,100100.56
2022-08-04T16:52:54.074Z,100096.66
2022-08-04T16:55:27.188Z,100097.63
2022-08-04T16:57:54.692Z,100087.88
2022-08-04T17:00:31.989Z,100099.16
2022-08-04T17:03:00.796Z,100092.31
2022-08-04T17:05:38.447Z,100098.13
2022-08-04T17:08:28.710Z,100107.38
2022-08-04T17:10:53.480Z,100106.00
2022-08-04T17:14:01.983Z,100107.03
2022-08-04T17:16:18.960Z,100109.00
2022-08-04T17:18:51.666Z,100109.84
2022-08-04T17:21:20.036Z,100114.16
2022-08-04T17:24:16.543Z,100108.88
2022-08-04T17:29:43.144Z,100105.94
2022-08-04T17:32:17.289Z,100104.81
2022-08-04T17:34:48.793Z,100106.41
2022-08-04T17:40:06.335Z,100104.28
2022-08-04T17:42:39.182Z,100111.31
2022-08-04T17:48:07.495Z,100108.50
2022-08-04T17:50:36.887Z,100111.91
2022-08-04T17:53:13.298Z,100105.41
2022-08-04T17:55:40.091Z,100107.97
2022-08-04T17:58:21.137Z,100110.50
2022-08-04T18:00:51.169Z,100110.19
2022-08-04T18:03:30.145Z,100110.97
2022-08-04T18:06:03.502Z,100107.13
2022-08-04T18:08:39.778Z,100105.63
2022-08-04T18:11:10.276Z,100110.63
2022-08-04T18:13:42.813Z,100100.31
2022-08-04T18:16:22.157Z,100102.63
2022-08-04T18:19:10.347Z,100105.78
2022-08-04T18:21:46.640Z,100111.69
2022-08-04T18:24:35.113Z,100115.75
2022-08-04T18:27:19.580Z,100113.72
2022-08-04T18:30:14.556Z,100117.88
2022-08-04T18:32:34.180Z,100121.19
2022-08-04T18:35:05.736Z,100125.28
2022-08-04T18:38:06.384Z,100129.25
2022-08-04T18:43:14.451Z,100141.44
2022-08-04T18:45:41.646Z,100142.56
2022-08-04T18:48:17.636Z,100146.53
2022-08-04T18:51:09.180Z,100140.38
2022-08-04T18:53:35.634Z,100143.13
2022-08-04T18:56:03.556Z,100147.31
2022-08-04T18:58:32.732Z,100151.94
2022-08-04T19:01:01.103Z,100152.81
2022-08-04T19:03:33.346Z,100160.06
2022-08-04T19:06:03.073Z,100154.88
2022-08-04T19:08:34.578Z,100158.56
2022-08-04T19:11:36.846Z,100162.31
2022-08-04T19:13:58.073Z,100157.41
2022-08-04T19:16:28.791Z,100173.31
2022-08-04T19:18:56.000Z,100165.94
2022-08-04T19:21:59.299Z,100167.53
2022-08-04T19:24:32.517Z,100169.19
2022-08-04T19:27:06.924Z,100168.88
2022-08-04T19:29:37.829Z,100174.53
2022-08-04T19:32:13.800Z,100173.97
2022-08-04T19:34:47.321Z,100173.38
2022-08-04T19:37:58.336Z,100169.28
2022-08-04T19:40:05.725Z,100183.06
2022-08-04T19:42:34.843Z,100177.22
2022-08-04T19:45:04.498Z,100176.63
2022-08-04T19:48:11.674Z,100183.22
2022-08-04T19:50:23.693Z,100180.09
2022-08-04T19:52:53.014Z,100177.25
2022-08-04T19:55:22.365Z,100185.69
2022-08-04T19:57:54.628Z,100184.97
2022-08-04T20:00:33.225Z,100188.78
2022-08-04T20:03:01.859Z,100189.84
2022-08-04T20:05:34.204Z,100183.78
2022-08-04T20:08:18.969Z,100192.84
2022-08-04T20:10:51.923Z,100188.66
2022-08-04T20:13:19.635Z,100193.28
2022-08-04T20:15:58.086Z,100190.88
2022-08-04T20:21:19.635Z,100189.50
2022-08-04T20:23:51.200Z,100188.81
2022-08-04T20:26:17.840Z,100185.50
2022-08-04T20:28:51.962Z,100189.25
2022-08-04T20:31:19.106Z,100187.75
2022-08-04T20:33:53.489Z,100188.81
2022-08-04T20:36:20.958Z,100194.22
2022-08-04T20:38:52.000Z,100188.16
2022-08-04T20:41:22.269Z,100200.06
2022-08-04T20:43:56.191Z,100198.41
2022-08-04T20:46:29.261Z,100194.00
2022-08-04T20:48:57.473Z,100202.03
2022-08-04T20:51:32.161Z,100195.97
2022-08-04T20:54:01.324Z,100195.25
2022-08-04T20:56:31.333Z,100190.97
2022-08-04T20:59:01.464Z,100198.28
2022-08-04T21:01:37.011Z,100202.03
2022-08-04T21:04:27.930Z,100205.03
2022-08-04T21:06:56.024Z,100201.25
2022-08-04T21:09:38.077Z,100210.25
2022-08-04T21:12:27.767Z,100207.75
2022-08-04T21:14:56.744Z,100209.63
2022-08-04T21:17:57.725Z,100215.91
2022-08-04T21:20:13.880Z,100222.28
2022-08-04T21:22:40.881Z,100221.53
2022-08-04T21:25:15.867Z,100218.91
2022-08-04T21:27:43.464Z,100216.50
2022-08-04T21:30:14.998Z,100220.16
2022-08-04T21:32:51.132Z,100222.94
2022-08-04T21:35:21.409Z,100223.88
2022-08-04T21:38:03.381Z,100229.25
2022-08-04T21:40:37.869Z,100235.50
2022-08-04T21:43:05.551Z,100231.19
2022-08-04T21:45:36.431Z,100237.47
2022-08-04T21:48:05.058Z,100233.13
2022-08-04T21:50:31.643Z,100243.88
2022-08-04T21:53:00.539Z,100244.88
2022-08-04T21:56:05.446Z,100244.06
2022-08-04T21:58:16.147Z,100248.53
2022-08-04T22:00:43.585Z,100247.63
2022-08-04T22:06:04.954Z,100248.03
2022-08-04T22:08:31.897Z,100250.88
2022-08-04T22:10:59.049Z,100244.78
2022-08-04T22:13:52.343Z,100246.63
2022-08-04T22:16:15.534Z,100248.72
2022-08-04T22:18:42.567Z,100257.84
2022-08-04T22:21:17.140Z,100248.25
2022-08-04T22:23:50.563Z,100257.69
2022-08-04T22:26:20.245Z,100256.13
2022-08-04T22:28:53.841Z,100256.16
2022-08-04T22:31:24.760Z,100255.28
2022-08-04T22:33:56.138Z,100262.50
2022-08-04T22:36:25.355Z,100251.09
2022-08-04T22:39:01.543Z,100258.31
2022-08-04T22:41:34.380Z,100259.16
2022-08-04T22:44:16.149Z,100260.97
2022-08-04T22:46:42.906Z,100252.16
2022-08-04T22:49:09.545Z,100260.22
2022-08-04T22:51:36.102Z,100253.19
2022-08-04T22:54:02.678Z,100252.41
2022-08-04T22:56:45.432Z,100249.84
2022-08-04T22:59:17.402Z,100247.19
2022-08-04T23:01:59.564Z,100248.13
2022-08-04T23:04:29.224Z,100244.66
2022-08-04T23:06:55.769Z,100242.94
2022-08-04T23:09:27.031Z,100242.16
2022-08-04T23:12:28.398Z,100243.09
2022-08-04T23:14:56.211Z,100243.97
2022-08-04T23:17:23.234Z,100245.88
2022-08-04T23:19:58.291Z,100237.97
2022-08-04T23:22:42.235Z,100238.91
2022-08-04T23:25:18.484Z,100246.97
2022-08-04T23:27:59.727Z,100243.56
2022-08-04T23:30:30.417Z,100236.69
2022-08-04T23:32:57.456Z,100247.41
2022-08-04T23:35:24.153Z,100243.00
2022-08-04T23:37:57.133Z,100248.41
2022-08-04T23:40:33.509Z,100243.19
2022-08-04T23:43:01.971Z,100242.41
2022-08-04T23:46:04.169Z,100245.06
2022-08-04T23:48:20.844Z,100239.88
2022-08-04T23:50:48.271Z,100243.53
2022-08-04T23:53:18.750Z,100238.34
2022-08-04T23:55:49.380Z,100237.72
2022-08-04T23:58:18.864Z,100238.59
